sensor_id;sensor_type;location;lat;lon;timestamp;P1;durP1;ratioP1;P2;durP2;ratioP2
17743;SDS011;8994;48.934;9.526;2022-07-04T00:02:25;1.47;;;1.10;;
17743;SDS011;8994;48.934;9.526;2022-07-04T00:04:51;1.23;;;1.13;;
17743;SDS011;8994;48.934;9.526;2022-07-04T00:07:16;3.10;;;1.10;;
17743;SDS011;8994;48.934;9.526;2022-07-04T00:09:42;6.80;;;0.93;;
17743;SDS011;8994;48.934;9.526;2022-07-04T00:12:08;1.70;;;0.90;;
17743;SDS011;8994;48.934;9.526;2022-07-04T00:14:34;1.40;;;1.30;;
17743;SDS011;8994;48.934;9.526;2022-07-04T00:16:59;1.73;;;1.10;;
17743;SDS011;8994;48.934;9.526;2022-07-04T00:19:25;1.80;;;1.20;;
17743;SDS011;8994;48.934;9.526;2022-07-04T00:21:51;1.13;;;0.93;;
17743;SDS011;8994;48.934;9.526;2022-07-04T00:24:17;2.23;;;1.33;;
17743;SDS011;8994;48.934;9.526;2022-07-04T00:26:42;1.77;;;1.10;;
17743;SDS011;8994;48.934;9.526;2022-07-04T00:29:08;2.20;;;1.30;;
17743;SDS011;8994;48.934;9.526;2022-07-04T00:31:33;2.00;;;1.03;;
17743;SDS011;8994;48.934;9.526;2022-07-04T00:33:59;4.37;;;1.40;;
17743;SDS011;8994;48.934;9.526;2022-07-04T00:36:25;1.60;;;1.30;;
17743;SDS011;8994;48.934;9.526;2022-07-04T00:38:50;1.83;;;1.40;;
17743;SDS011;8994;48.934;9.526;2022-07-04T00:41:16;2.40;;;1.57;;
17743;SDS011;8994;48.934;9.526;2022-07-04T00:43:42;1.80;;;1.20;;
17743;SDS011;8994;48.934;9.526;2022-07-04T00:46:07;3.10;;;1.27;;
17743;SDS011;8994;48.934;9.526;2022-07-04T00:48:33;2.80;;;1.20;;
17743;SDS011;8994;48.934;9.526;2022-07-04T00:50:58;1.40;;;1.33;;
17743;SDS011;8994;48.934;9.526;2022-07-04T00:53:24;1.83;;;1.00;;
17743;SDS011;8994;48.934;9.526;2022-07-04T00:55:50;2.37;;;1.20;;
17743;SDS011;8994;48.934;9.526;2022-07-04T00:58:21;3.60;;;1.20;;
17743;SDS011;8994;48.934;9.526;2022-07-04T01:00:48;1.33;;;1.20;;
17743;SDS011;8994;48.934;9.526;2022-07-04T01:03:14;1.10;;;1.00;;
17743;SDS011;8994;48.934;9.526;2022-07-04T01:05:40;2.90;;;0.97;;
17743;SDS011;8994;48.934;9.526;2022-07-04T01:08:07;1.10;;;1.10;;
17743;SDS011;8994;48.934;9.526;2022-07-04T01:10:34;1.90;;;1.37;;
17743;SDS011;8994;48.934;9.526;2022-07-04T01:13:00;4.50;;;1.40;;
17743;SDS011;8994;48.934;9.526;2022-07-04T01:15:25;3.97;;;1.20;;
17743;SDS011;8994;48.934;9.526;2022-07-04T01:17:51;3.57;;;1.50;;
17743;SDS011;8994;48.934;9.526;2022-07-04T01:20:17;1.10;;;1.10;;
17743;SDS011;8994;48.934;9.526;2022-07-04T01:22:42;1.37;;;1.33;;
17743;SDS011;8994;48.934;9.526;2022-07-04T01:25:08;3.07;;;1.37;;
17743;SDS011;8994;48.934;9.526;2022-07-04T01:27:34;1.20;;;1.20;;
17743;SDS011;8994;48.934;9.526;2022-07-04T01:30:00;1.30;;;1.30;;
17743;SDS011;8994;48.934;9.526;2022-07-04T01:32:26;1.17;;;1.17;;
17743;SDS011;8994;48.934;9.526;2022-07-04T01:34:51;1.73;;;1.20;;
17743;SDS011;8994;48.934;9.526;2022-07-04T01:37:17;4.43;;;1.30;;
17743;SDS011;8994;48.934;9.526;2022-07-04T01:39:43;4.30;;;1.50;;
17743;SDS011;8994;48.934;9.526;2022-07-04T01:42:08;3.13;;;1.33;;
17743;SDS011;8994;48.934;9.526;2022-07-04T01:44:34;1.23;;;1.10;;
17743;SDS011;8994;48.934;9.526;2022-07-04T01:47:00;1.20;;;1.10;;
17743;SDS011;8994;48.934;9.526;2022-07-04T01:49:26;2.00;;;1.50;;
17743;SDS011;8994;48.934;9.526;2022-07-04T01:51:53;1.37;;;1.20;;
17743;SDS011;8994;48.934;9.526;2022-07-04T01:54:19;1.67;;;1.30;;
17743;SDS011;8994;48.934;9.526;2022-07-04T01:56:44;2.00;;;1.57;;
17743;SDS011;8994;48.934;9.526;2022-07-04T01:59:10;2.20;;;1.50;;
17743;SDS011;8994;48.934;9.526;2022-07-04T02:01:36;1.30;;;1.20;;
17743;SDS011;8994;48.934;9.526;2022-07-04T02:04:03;1.50;;;1.40;;
17743;SDS011;8994;48.934;9.526;2022-07-04T02:06:30;1.47;;;1.37;;
17743;SDS011;8994;48.934;9.526;2022-07-04T02:08:56;1.60;;;1.50;;
17743;SDS011;8994;48.934;9.526;2022-07-04T02:11:40;1.30;;;1.30;;
17743;SDS011;8994;48.934;9.526;2022-07-04T02:14:25;1.57;;;1.40;;
17743;SDS011;8994;48.934;9.526;2022-07-04T02:16:50;5.17;;;1.60;;
17743;SDS011;8994;48.934;9.526;2022-07-04T02:19:16;1.10;;;1.10;;
17743;SDS011;8994;48.934;9.526;2022-07-04T02:21:42;1.40;;;1.30;;
17743;SDS011;8994;48.934;9.526;2022-07-04T02:24:08;2.10;;;1.33;;
17743;SDS011;8994;48.934;9.526;2022-07-04T02:26:33;2.47;;;1.40;;
17743;SDS011;8994;48.934;9.526;2022-07-04T02:28:59;1.30;;;1.30;;
17743;SDS011;8994;48.934;9.526;2022-07-04T02:31:25;2.47;;;1.33;;
17743;SDS011;8994;48.934;9.526;2022-07-04T02:33:51;1.50;;;1.40;;
17743;SDS011;8994;48.934;9.526;2022-07-04T02:36:17;1.60;;;1.47;;
17743;SDS011;8994;48.934;9.526;2022-07-04T02:38:42;1.43;;;1.33;;
17743;SDS011;8994;48.934;9.526;2022-07-04T02:41:08;1.30;;;1.30;;
17743;SDS011;8994;48.934;9.526;2022-07-04T02:43:33;1.73;;;1.63;;
17743;SDS011;8994;48.934;9.526;2022-07-04T02:45:59;1.67;;;1.50;;
17743;SDS011;8994;48.934;9.526;2022-07-04T02:48:24;1.60;;;1.50;;
17743;SDS011;8994;48.934;9.526;2022-07-04T02:50:50;2.60;;;1.50;;
17743;SDS011;8994;48.934;9.526;2022-07-04T02:53:16;3.20;;;1.53;;
17743;SDS011;8994;48.934;9.526;2022-07-04T02:55:41;1.50;;;1.40;;
17743;SDS011;8994;48.934;9.526;2022-07-04T02:58:07;1.40;;;1.30;;
17743;SDS011;8994;48.934;9.526;2022-07-04T03:00:32;1.43;;;1.20;;
17743;SDS011;8994;48.934;9.526;2022-07-04T03:02:58;2.93;;;1.70;;
17743;SDS011;8994;48.934;9.526;2022-07-04T03:05:24;2.60;;;1.70;;
17743;SDS011;8994;48.934;9.526;2022-07-04T03:07:49;2.63;;;1.60;;
17743;SDS011;8994;48.934;9.526;2022-07-04T03:10:15;3.17;;;1.40;;
17743;SDS011;8994;48.934;9.526;2022-07-04T03:12:41;1.60;;;1.50;;
17743;SDS011;8994;48.934;9.526;2022-07-04T03:15:06;1.53;;;1.47;;
17743;SDS011;8994;48.934;9.526;2022-07-04T03:17:32;2.80;;;1.40;;
17743;SDS011;8994;48.934;9.526;2022-07-04T03:19:58;1.77;;;1.40;;
17743;SDS011;8994;48.934;9.526;2022-07-04T03:22:23;3.03;;;1.33;;
17743;SDS011;8994;48.934;9.526;2022-07-04T03:24:49;1.90;;;1.70;;
17743;SDS011;8994;48.934;9.526;2022-07-04T03:27:14;1.60;;;1.50;;
17743;SDS011;8994;48.934;9.526;2022-07-04T03:29:40;2.00;;;1.70;;
17743;SDS011;8994;48.934;9.526;2022-07-04T03:32:07;1.60;;;1.50;;
17743;SDS011;8994;48.934;9.526;2022-07-04T03:34:33;1.30;;;1.30;;
17743;SDS011;8994;48.934;9.526;2022-07-04T03:36:58;1.77;;;1.67;;
17743;SDS011;8994;48.934;9.526;2022-07-04T03:39:24;2.87;;;1.40;;
17743;SDS011;8994;48.934;9.526;2022-07-04T03:41:49;1.40;;;1.30;;
17743;SDS011;8994;48.934;9.526;2022-07-04T03:44:15;1.40;;;1.30;;
17743;SDS011;8994;48.934;9.526;2022-07-04T03:46:41;2.53;;;2.23;;
17743;SDS011;8994;48.934;9.526;2022-07-04T03:49:06;3.00;;;2.70;;
17743;SDS011;8994;48.934;9.526;2022-07-04T03:51:32;4.03;;;3.63;;
17743;SDS011;8994;48.934;9.526;2022-07-04T03:53:57;3.37;;;3.07;;
17743;SDS011;8994;48.934;9.526;2022-07-04T03:56:23;3.37;;;3.07;;
17743;SDS011;8994;48.934;9.526;2022-07-04T03:58:49;3.70;;;3.00;;
17743;SDS011;8994;48.934;9.526;2022-07-04T04:01:15;2.60;;;2.40;;
17743;SDS011;8994;48.934;9.526;2022-07-04T04:03:42;2.63;;;2.13;;
17743;SDS011;8994;48.934;9.526;2022-07-04T04:06:26;2.10;;;2.00;;
17743;SDS011;8994;48.934;9.526;2022-07-04T04:08:52;2.53;;;2.33;;
17743;SDS011;8994;48.934;9.526;2022-07-04T04:11:17;2.40;;;2.20;;
17743;SDS011;8994;48.934;9.526;2022-07-04T04:13:43;2.20;;;2.10;;
17743;SDS011;8994;48.934;9.526;2022-07-04T04:16:09;4.10;;;2.10;;
17743;SDS011;8994;48.934;9.526;2022-07-04T04:18:34;2.27;;;2.10;;
17743;SDS011;8994;48.934;9.526;2022-07-04T04:21:00;3.10;;;1.70;;
17743;SDS011;8994;48.934;9.526;2022-07-04T04:23:26;3.33;;;1.77;;
17743;SDS011;8994;48.934;9.526;2022-07-04T04:25:51;1.90;;;1.80;;
17743;SDS011;8994;48.934;9.526;2022-07-04T04:28:17;2.03;;;1.93;;
17743;SDS011;8994;48.934;9.526;2022-07-04T04:30:42;1.90;;;1.80;;
17743;SDS011;8994;48.934;9.526;2022-07-04T04:33:08;1.87;;;1.70;;
17743;SDS011;8994;48.934;9.526;2022-07-04T04:35:34;1.80;;;1.70;;
17743;SDS011;8994;48.934;9.526;2022-07-04T04:37:59;2.00;;;1.90;;
17743;SDS011;8994;48.934;9.526;2022-07-04T04:40:25;3.43;;;2.30;;
17743;SDS011;8994;48.934;9.526;2022-07-04T04:42:50;3.80;;;2.47;;
17743;SDS011;8994;48.934;9.526;2022-07-04T04:45:16;1.50;;;1.50;;
17743;SDS011;8994;48.934;9.526;2022-07-04T04:47:42;2.47;;;1.53;;
17743;SDS011;8994;48.934;9.526;2022-07-04T04:50:08;1.60;;;1.50;;
17743;SDS011;8994;48.934;9.526;2022-07-04T04:52:39;2.73;;;1.50;;
17743;SDS011;8994;48.934;9.526;2022-07-04T04:55:06;1.70;;;1.60;;
17743;SDS011;8994;48.934;9.526;2022-07-04T04:57:32;2.87;;;1.50;;
17743;SDS011;8994;48.934;9.526;2022-07-04T04:59:58;2.03;;;1.60;;
17743;SDS011;8994;48.934;9.526;2022-07-04T05:02:24;2.00;;;1.90;;
17743;SDS011;8994;48.934;9.526;2022-07-04T05:04:49;4.17;;;2.00;;
17743;SDS011;8994;48.934;9.526;2022-07-04T05:07:15;1.80;;;1.70;;
17743;SDS011;8994;48.934;9.526;2022-07-04T05:09:42;9.53;;;2.00;;
17743;SDS011;8994;48.934;9.526;2022-07-04T05:12:07;1.63;;;1.53;;
17743;SDS011;8994;48.934;9.526;2022-07-04T05:14:33;4.30;;;1.90;;
17743;SDS011;8994;48.934;9.526;2022-07-04T05:16:59;1.40;;;1.40;;
17743;SDS011;8994;48.934;9.526;2022-07-04T05:19:24;3.47;;;1.60;;
17743;SDS011;8994;48.934;9.526;2022-07-04T05:21:50;7.20;;;1.60;;
17743;SDS011;8994;48.934;9.526;2022-07-04T05:24:15;3.57;;;2.00;;
17743;SDS011;8994;48.934;9.526;2022-07-04T05:26:41;4.20;;;1.80;;
17743;SDS011;8994;48.934;9.526;2022-07-04T05:29:07;2.43;;;1.80;;
17743;SDS011;8994;48.934;9.526;2022-07-04T05:31:33;2.33;;;2.10;;
17743;SDS011;8994;48.934;9.526;2022-07-04T05:33:59;2.67;;;1.80;;
17743;SDS011;8994;48.934;9.526;2022-07-04T05:36:25;5.00;;;2.20;;
17743;SDS011;8994;48.934;9.526;2022-07-04T05:38:51;3.30;;;1.90;;
17743;SDS011;8994;48.934;9.526;2022-07-04T05:41:17;6.00;;;1.80;;
17743;SDS011;8994;48.934;9.526;2022-07-04T05:43:43;2.43;;;1.77;;
17743;SDS011;8994;48.934;9.526;2022-07-04T05:46:09;2.77;;;1.57;;
17743;SDS011;8994;48.934;9.526;2022-07-04T05:48:35;2.13;;;1.97;;
17743;SDS011;8994;48.934;9.526;2022-07-04T05:51:01;2.97;;;1.70;;
17743;SDS011;8994;48.934;9.526;2022-07-04T05:53:31;2.03;;;1.80;;
17743;SDS011;8994;48.934;9.526;2022-07-04T05:55:57;4.47;;;1.77;;
17743;SDS011;8994;48.934;9.526;2022-07-04T05:58:22;1.93;;;1.83;;
17743;SDS011;8994;48.934;9.526;2022-07-04T06:00:48;3.43;;;2.00;;
17743;SDS011;8994;48.934;9.526;2022-07-04T06:03:14;2.10;;;1.83;;
17743;SDS011;8994;48.934;9.526;2022-07-04T06:05:39;2.63;;;1.70;;
17743;SDS011;8994;48.934;9.526;2022-07-04T06:08:05;4.83;;;2.30;;
17743;SDS011;8994;48.934;9.526;2022-07-04T06:10:31;2.97;;;1.90;;
17743;SDS011;8994;48.934;9.526;2022-07-04T06:12:56;4.10;;;1.83;;
17743;SDS011;8994;48.934;9.526;2022-07-04T06:15:22;2.13;;;2.00;;
17743;SDS011;8994;48.934;9.526;2022-07-04T06:17:47;4.07;;;2.33;;
17743;SDS011;8994;48.934;9.526;2022-07-04T06:20:13;2.03;;;1.50;;
17743;SDS011;8994;48.934;9.526;2022-07-04T06:22:44;4.23;;;1.67;;
17743;SDS011;8994;48.934;9.526;2022-07-04T06:25:14;5.43;;;1.90;;
17743;SDS011;8994;48.934;9.526;2022-07-04T06:27:42;4.67;;;2.00;;
17743;SDS011;8994;48.934;9.526;2022-07-04T06:30:08;7.10;;;2.03;;
17743;SDS011;8994;48.934;9.526;2022-07-04T06:32:41;2.53;;;1.90;;
17743;SDS011;8994;48.934;9.526;2022-07-04T06:35:11;1.60;;;1.50;;
17743;SDS011;8994;48.934;9.526;2022-07-04T06:37:56;2.20;;;1.40;;
17743;SDS011;8994;48.934;9.526;2022-07-04T06:40:22;3.20;;;1.80;;
17743;SDS011;8994;48.934;9.526;2022-07-04T06:42:48;4.07;;;1.40;;
17743;SDS011;8994;48.934;9.526;2022-07-04T06:45:15;3.73;;;1.70;;
17743;SDS011;8994;48.934;9.526;2022-07-04T06:47:41;2.00;;;1.30;;
17743;SDS011;8994;48.934;9.526;2022-07-04T06:50:07;3.73;;;1.70;;
17743;SDS011;8994;48.934;9.526;2022-07-04T06:52:33;1.63;;;1.30;;
17743;SDS011;8994;48.934;9.526;2022-07-04T06:54:59;2.83;;;1.60;;
17743;SDS011;8994;48.934;9.526;2022-07-04T06:57:25;2.33;;;1.80;;
17743;SDS011;8994;48.934;9.526;2022-07-04T06:59:51;5.30;;;1.47;;
17743;SDS011;8994;48.934;9.526;2022-07-04T07:02:17;3.40;;;1.53;;
17743;SDS011;8994;48.934;9.526;2022-07-04T07:04:43;4.57;;;1.80;;
17743;SDS011;8994;48.934;9.526;2022-07-04T07:07:08;4.57;;;1.70;;
17743;SDS011;8994;48.934;9.526;2022-07-04T07:09:34;2.00;;;1.47;;
17743;SDS011;8994;48.934;9.526;2022-07-04T07:12:00;3.27;;;1.80;;
17743;SDS011;8994;48.934;9.526;2022-07-04T07:14:26;3.50;;;1.70;;
17743;SDS011;8994;48.934;9.526;2022-07-04T07:16:52;5.37;;;1.73;;
17743;SDS011;8994;48.934;9.526;2022-07-04T07:19:18;2.43;;;1.40;;
17743;SDS011;8994;48.934;9.526;2022-07-04T07:21:44;4.43;;;1.60;;
17743;SDS011;8994;48.934;9.526;2022-07-04T07:24:09;2.60;;;1.60;;
17743;SDS011;8994;48.934;9.526;2022-07-04T07:26:35;2.37;;;1.50;;
17743;SDS011;8994;48.934;9.526;2022-07-04T07:29:01;2.10;;;1.37;;
17743;SDS011;8994;48.934;9.526;2022-07-04T07:31:26;5.07;;;1.60;;
17743;SDS011;8994;48.934;9.526;2022-07-04T07:33:53;4.93;;;1.80;;
17743;SDS011;8994;48.934;9.526;2022-07-04T07:36:19;3.20;;;1.90;;
17743;SDS011;8994;48.934;9.526;2022-07-04T07:38:45;4.50;;;1.70;;
17743;SDS011;8994;48.934;9.526;2022-07-04T07:41:11;1.70;;;1.60;;
17743;SDS011;8994;48.934;9.526;2022-07-04T07:43:37;3.57;;;1.70;;
17743;SDS011;8994;48.934;9.526;2022-07-04T07:46:06;2.27;;;1.70;;
17743;SDS011;8994;48.934;9.526;2022-07-04T07:48:33;2.87;;;1.70;;
17743;SDS011;8994;48.934;9.526;2022-07-04T07:50:59;5.20;;;1.70;;
17743;SDS011;8994;48.934;9.526;2022-07-04T07:53:25;4.87;;;1.83;;
17743;SDS011;8994;48.934;9.526;2022-07-04T07:55:51;2.87;;;1.63;;
17743;SDS011;8994;48.934;9.526;2022-07-04T07:58:17;2.27;;;1.50;;
17743;SDS011;8994;48.934;9.526;2022-07-04T08:00:44;6.97;;;1.70;;
17743;SDS011;8994;48.934;9.526;2022-07-04T08:03:10;6.07;;;1.83;;
17743;SDS011;8994;48.934;9.526;2022-07-04T08:05:55;5.97;;;1.60;;
17743;SDS011;8994;48.934;9.526;2022-07-04T08:08:20;4.27;;;1.90;;
17743;SDS011;8994;48.934;9.526;2022-07-04T08:10:48;1.90;;;1.80;;
17743;SDS011;8994;48.934;9.526;2022-07-04T08:13:14;2.80;;;1.50;;
17743;SDS011;8994;48.934;9.526;2022-07-04T08:15:40;3.43;;;1.60;;
17743;SDS011;8994;48.934;9.526;2022-07-04T08:18:06;4.47;;;2.10;;
17743;SDS011;8994;48.934;9.526;2022-07-04T08:20:31;1.70;;;1.60;;
17743;SDS011;8994;48.934;9.526;2022-07-04T08:22:57;6.03;;;1.57;;
17743;SDS011;8994;48.934;9.526;2022-07-04T08:25:23;3.43;;;1.83;;
17743;SDS011;8994;48.934;9.526;2022-07-04T08:27:49;3.73;;;1.60;;
17743;SDS011;8994;48.934;9.526;2022-07-04T08:30:15;5.23;;;1.70;;
17743;SDS011;8994;48.934;9.526;2022-07-04T08:32:40;2.07;;;1.53;;
17743;SDS011;8994;48.934;9.526;2022-07-04T08:35:06;4.33;;;1.67;;
17743;SDS011;8994;48.934;9.526;2022-07-04T08:37:32;4.53;;;2.00;;
17743;SDS011;8994;48.934;9.526;2022-07-04T08:39:58;7.77;;;1.50;;
17743;SDS011;8994;48.934;9.526;2022-07-04T08:42:24;1.70;;;1.60;;
17743;SDS011;8994;48.934;9.526;2022-07-04T08:44:53;2.80;;;1.73;;
17743;SDS011;8994;48.934;9.526;2022-07-04T08:47:22;2.73;;;1.73;;
17743;SDS011;8994;48.934;9.526;2022-07-04T08:49:59;2.23;;;1.50;;
17743;SDS011;8994;48.934;9.526;2022-07-04T08:52:38;6.43;;;1.80;;
17743;SDS011;8994;48.934;9.526;2022-07-04T08:55:06;3.77;;;1.80;;
17743;SDS011;8994;48.934;9.526;2022-07-04T08:57:52;4.13;;;1.80;;
17743;SDS011;8994;48.934;9.526;2022-07-04T09:00:36;2.37;;;1.67;;
17743;SDS011;8994;48.934;9.526;2022-07-04T09:03:02;2.70;;;1.80;;
17743;SDS011;8994;48.934;9.526;2022-07-04T09:05:29;2.70;;;1.63;;
17743;SDS011;8994;48.934;9.526;2022-07-04T09:07:57;5.83;;;1.40;;
17743;SDS011;8994;48.934;9.526;2022-07-04T09:10:24;2.63;;;1.40;;
17743;SDS011;8994;48.934;9.526;2022-07-04T09:12:50;6.50;;;1.77;;
17743;SDS011;8994;48.934;9.526;2022-07-04T09:15:16;2.37;;;1.80;;
17743;SDS011;8994;48.934;9.526;2022-07-04T09:17:42;2.57;;;1.70;;
17743;SDS011;8994;48.934;9.526;2022-07-04T09:20:16;2.47;;;1.93;;
17743;SDS011;8994;48.934;9.526;2022-07-04T09:22:43;4.37;;;1.70;;
17743;SDS011;8994;48.934;9.526;2022-07-04T09:25:11;1.70;;;1.60;;
17743;SDS011;8994;48.934;9.526;2022-07-04T09:27:44;3.43;;;1.70;;
17743;SDS011;8994;48.934;9.526;2022-07-04T09:30:14;1.83;;;1.73;;
17743;SDS011;8994;48.934;9.526;2022-07-04T09:32:43;1.90;;;1.77;;
17743;SDS011;8994;48.934;9.526;2022-07-04T09:35:12;5.83;;;1.67;;
17743;SDS011;8994;48.934;9.526;2022-07-04T09:37:43;6.40;;;1.83;;
17743;SDS011;8994;48.934;9.526;2022-07-04T09:40:26;4.97;;;1.90;;
17743;SDS011;8994;48.934;9.526;2022-07-04T09:42:57;4.00;;;1.93;;
17743;SDS011;8994;48.934;9.526;2022-07-04T09:45:24;3.20;;;1.80;;
17743;SDS011;8994;48.934;9.526;2022-07-04T09:47:54;4.70;;;2.10;;
17743;SDS011;8994;48.934;9.526;2022-07-04T09:50:22;4.43;;;1.90;;
17743;SDS011;8994;48.934;9.526;2022-07-04T09:52:50;6.67;;;1.77;;
17743;SDS011;8994;48.934;9.526;2022-07-04T09:55:22;3.90;;;1.77;;
17743;SDS011;8994;48.934;9.526;2022-07-04T09:57:57;7.23;;;2.00;;
17743;SDS011;8994;48.934;9.526;2022-07-04T10:00:37;6.30;;;2.50;;
17743;SDS011;8994;48.934;9.526;2022-07-04T10:03:24;6.67;;;1.97;;
17743;SDS011;8994;48.934;9.526;2022-07-04T10:06:05;3.17;;;1.60;;
17743;SDS011;8994;48.934;9.526;2022-07-04T10:08:36;1.77;;;1.67;;
17743;SDS011;8994;48.934;9.526;2022-07-04T10:11:03;2.97;;;2.00;;
17743;SDS011;8994;48.934;9.526;2022-07-04T10:13:29;4.53;;;1.93;;
17743;SDS011;8994;48.934;9.526;2022-07-04T10:15:56;4.30;;;1.90;;
17743;SDS011;8994;48.934;9.526;2022-07-04T10:18:22;7.07;;;2.30;;
17743;SDS011;8994;48.934;9.526;2022-07-04T10:20:49;2.57;;;1.83;;
17743;SDS011;8994;48.934;9.526;2022-07-04T10:23:16;4.57;;;1.53;;
17743;SDS011;8994;48.934;9.526;2022-07-04T10:25:42;7.70;;;1.77;;
17743;SDS011;8994;48.934;9.526;2022-07-04T10:28:12;8.63;;;1.50;;
17743;SDS011;8994;48.934;9.526;2022-07-04T10:30:38;5.87;;;1.90;;
17743;SDS011;8994;48.934;9.526;2022-07-04T10:33:06;3.90;;;1.57;;
17743;SDS011;8994;48.934;9.526;2022-07-04T10:38:20;1.63;;;1.47;;
17743;SDS011;8994;48.934;9.526;2022-07-04T10:40:51;6.03;;;1.73;;
17743;SDS011;8994;48.934;9.526;2022-07-04T10:48:30;4.00;;;1.20;;
17743;SDS011;8994;48.934;9.526;2022-07-04T10:51:06;3.57;;;1.50;;
17743;SDS011;8994;48.934;9.526;2022-07-04T10:53:33;2.87;;;1.20;;
17743;SDS011;8994;48.934;9.526;2022-07-04T10:58:44;2.00;;;1.47;;
17743;SDS011;8994;48.934;9.526;2022-07-04T11:01:14;2.30;;;1.53;;
17743;SDS011;8994;48.934;9.526;2022-07-04T11:03:45;4.00;;;1.20;;
17743;SDS011;8994;48.934;9.526;2022-07-04T11:07:01;2.13;;;1.90;;
17743;SDS011;8994;48.934;9.526;2022-07-04T11:14:39;2.43;;;1.00;;
17743;SDS011;8994;48.934;9.526;2022-07-04T11:20:02;1.60;;;1.47;;
17743;SDS011;8994;48.934;9.526;2022-07-04T11:22:29;2.30;;;1.30;;
17743;SDS011;8994;48.934;9.526;2022-07-04T11:24:55;1.80;;;1.67;;
17743;SDS011;8994;48.934;9.526;2022-07-04T11:27:22;1.57;;;1.37;;
17743;SDS011;8994;48.934;9.526;2022-07-04T11:29:49;1.60;;;1.10;;
17743;SDS011;8994;48.934;9.526;2022-07-04T11:32:15;1.20;;;0.97;;
17743;SDS011;8994;48.934;9.526;2022-07-04T11:34:41;4.90;;;1.70;;
17743;SDS011;8994;48.934;9.526;2022-07-04T11:37:07;3.97;;;1.40;;
17743;SDS011;8994;48.934;9.526;2022-07-04T11:39:33;2.63;;;1.17;;
17743;SDS011;8994;48.934;9.526;2022-07-04T11:41:59;5.63;;;1.23;;
17743;SDS011;8994;48.934;9.526;2022-07-04T11:44:43;6.30;;;1.20;;
17743;SDS011;8994;48.934;9.526;2022-07-04T11:47:37;1.43;;;1.10;;
17743;SDS011;8994;48.934;9.526;2022-07-04T11:50:05;1.97;;;1.70;;
17743;SDS011;8994;48.934;9.526;2022-07-04T11:52:42;2.87;;;1.30;;
17743;SDS011;8994;48.934;9.526;2022-07-04T11:55:10;2.10;;;1.07;;
17743;SDS011;8994;48.934;9.526;2022-07-04T11:57:41;2.63;;;1.20;;
17743;SDS011;8994;48.934;9.526;2022-07-04T12:02:39;4.37;;;1.30;;
17743;SDS011;8994;48.934;9.526;2022-07-04T12:05:06;2.87;;;1.17;;
17743;SDS011;8994;48.934;9.526;2022-07-04T12:07:34;1.40;;;1.30;;
17743;SDS011;8994;48.934;9.526;2022-07-04T12:10:12;1.73;;;1.17;;
17743;SDS011;8994;48.934;9.526;2022-07-04T12:12:55;2.60;;;0.97;;
17743;SDS011;8994;48.934;9.526;2022-07-04T12:15:24;2.50;;;1.27;;
17743;SDS011;8994;48.934;9.526;2022-07-04T12:17:54;2.23;;;1.43;;
17743;SDS011;8994;48.934;9.526;2022-07-04T12:20:21;2.97;;;1.33;;
17743;SDS011;8994;48.934;9.526;2022-07-04T12:22:52;2.07;;;1.33;;
17743;SDS011;8994;48.934;9.526;2022-07-04T12:25:23;3.07;;;1.10;;
17743;SDS011;8994;48.934;9.526;2022-07-04T12:28:04;1.83;;;1.20;;
17743;SDS011;8994;48.934;9.526;2022-07-04T12:30:33;3.23;;;1.23;;
17743;SDS011;8994;48.934;9.526;2022-07-04T12:33:14;2.23;;;1.27;;
17743;SDS011;8994;48.934;9.526;2022-07-04T12:43:43;2.43;;;1.50;;
17743;SDS011;8994;48.934;9.526;2022-07-04T12:48:49;4.03;;;1.53;;
17743;SDS011;8994;48.934;9.526;2022-07-04T12:53:50;1.33;;;1.20;;
17743;SDS011;8994;48.934;9.526;2022-07-04T12:56:35;3.00;;;1.43;;
17743;SDS011;8994;48.934;9.526;2022-07-04T12:59:04;2.57;;;1.23;;
17743;SDS011;8994;48.934;9.526;2022-07-04T13:01:32;3.23;;;1.60;;
17743;SDS011;8994;48.934;9.526;2022-07-04T13:03:58;3.07;;;1.20;;
17743;SDS011;8994;48.934;9.526;2022-07-04T13:06:24;1.63;;;1.40;;
17743;SDS011;8994;48.934;9.526;2022-07-04T13:08:51;3.93;;;1.40;;
17743;SDS011;8994;48.934;9.526;2022-07-04T13:11:18;1.83;;;1.43;;
17743;SDS011;8994;48.934;9.526;2022-07-04T13:14:02;10.33;;;1.67;;
17743;SDS011;8994;48.934;9.526;2022-07-04T13:16:28;1.50;;;1.40;;
17743;SDS011;8994;48.934;9.526;2022-07-04T13:18:53;3.13;;;1.20;;
17743;SDS011;8994;48.934;9.526;2022-07-04T13:21:19;1.83;;;1.23;;
17743;SDS011;8994;48.934;9.526;2022-07-04T13:23:45;5.23;;;1.63;;
17743;SDS011;8994;48.934;9.526;2022-07-04T13:26:10;4.47;;;1.50;;
17743;SDS011;8994;48.934;9.526;2022-07-04T13:28:36;6.20;;;1.40;;
17743;SDS011;8994;48.934;9.526;2022-07-04T13:31:02;1.80;;;1.47;;
17743;SDS011;8994;48.934;9.526;2022-07-04T13:33:29;2.83;;;1.53;;
17743;SDS011;8994;48.934;9.526;2022-07-04T13:35:54;5.10;;;1.67;;
17743;SDS011;8994;48.934;9.526;2022-07-04T13:38:20;1.97;;;1.37;;
17743;SDS011;8994;48.934;9.526;2022-07-04T13:40:45;3.80;;;1.43;;
17743;SDS011;8994;48.934;9.526;2022-07-04T13:43:11;2.00;;;1.30;;
17743;SDS011;8994;48.934;9.526;2022-07-04T13:45:40;2.93;;;1.27;;
17743;SDS011;8994;48.934;9.526;2022-07-04T13:48:09;2.53;;;1.50;;
17743;SDS011;8994;48.934;9.526;2022-07-04T13:50:35;2.50;;;1.20;;
17743;SDS011;8994;48.934;9.526;2022-07-04T13:53:03;4.17;;;1.50;;
17743;SDS011;8994;48.934;9.526;2022-07-04T13:55:29;3.07;;;1.43;;
17743;SDS011;8994;48.934;9.526;2022-07-04T13:57:55;2.43;;;1.20;;
17743;SDS011;8994;48.934;9.526;2022-07-04T14:00:21;1.73;;;1.10;;
17743;SDS011;8994;48.934;9.526;2022-07-04T14:02:47;4.77;;;1.53;;
17743;SDS011;8994;48.934;9.526;2022-07-04T14:05:12;3.47;;;1.50;;
17743;SDS011;8994;48.934;9.526;2022-07-04T14:07:38;3.37;;;1.40;;
17743;SDS011;8994;48.934;9.526;2022-07-04T14:10:04;1.97;;;1.37;;
17743;SDS011;8994;48.934;9.526;2022-07-04T14:12:30;2.07;;;1.40;;
17743;SDS011;8994;48.934;9.526;2022-07-04T14:14:55;1.60;;;1.30;;
17743;SDS011;8994;48.934;9.526;2022-07-04T14:17:21;1.10;;;1.00;;
17743;SDS011;8994;48.934;9.526;2022-07-04T14:19:47;1.70;;;1.20;;
17743;SDS011;8994;48.934;9.526;2022-07-04T14:22:12;5.33;;;2.33;;
17743;SDS011;8994;48.934;9.526;2022-07-04T14:24:38;2.87;;;1.37;;
17743;SDS011;8994;48.934;9.526;2022-07-04T14:27:04;2.00;;;1.37;;
17743;SDS011;8994;48.934;9.526;2022-07-04T14:29:29;1.27;;;1.17;;
17743;SDS011;8994;48.934;9.526;2022-07-04T14:31:55;2.50;;;1.33;;
17743;SDS011;8994;48.934;9.526;2022-07-04T14:34:21;1.97;;;1.40;;
17743;SDS011;8994;48.934;9.526;2022-07-04T14:36:47;1.63;;;1.33;;
17743;SDS011;8994;48.934;9.526;2022-07-04T14:39:12;4.00;;;1.33;;
17743;SDS011;8994;48.934;9.526;2022-07-04T14:41:38;5.00;;;1.20;;
17743;SDS011;8994;48.934;9.526;2022-07-04T14:44:04;6.50;;;1.57;;
17743;SDS011;8994;48.934;9.526;2022-07-04T14:46:29;1.40;;;1.30;;
17743;SDS011;8994;48.934;9.526;2022-07-04T14:48:55;2.60;;;1.40;;
17743;SDS011;8994;48.934;9.526;2022-07-04T14:51:22;3.30;;;1.70;;
17743;SDS011;8994;48.934;9.526;2022-07-04T14:53:47;2.93;;;1.50;;
17743;SDS011;8994;48.934;9.526;2022-07-04T14:56:13;2.80;;;1.07;;
17743;SDS011;8994;48.934;9.526;2022-07-04T14:58:39;2.97;;;1.20;;
17743;SDS011;8994;48.934;9.526;2022-07-04T15:01:04;1.60;;;1.40;;
17743;SDS011;8994;48.934;9.526;2022-07-04T15:03:30;4.53;;;1.50;;
17743;SDS011;8994;48.934;9.526;2022-07-04T15:05:56;4.67;;;1.47;;
17743;SDS011;8994;48.934;9.526;2022-07-04T15:08:21;2.47;;;1.40;;
17743;SDS011;8994;48.934;9.526;2022-07-04T15:10:47;2.83;;;1.40;;
17743;SDS011;8994;48.934;9.526;2022-07-04T15:13:12;4.07;;;1.50;;
17743;SDS011;8994;48.934;9.526;2022-07-04T15:15:39;1.30;;;1.20;;
17743;SDS011;8994;48.934;9.526;2022-07-04T15:18:05;3.43;;;1.37;;
17743;SDS011;8994;48.934;9.526;2022-07-04T15:20:30;4.00;;;1.27;;
17743;SDS011;8994;48.934;9.526;2022-07-04T15:23:15;1.23;;;1.13;;
17743;SDS011;8994;48.934;9.526;2022-07-04T15:25:59;1.03;;;1.03;;
17743;SDS011;8994;48.934;9.526;2022-07-04T15:28:25;4.30;;;1.30;;
17743;SDS011;8994;48.934;9.526;2022-07-04T15:30:51;2.40;;;1.10;;
17743;SDS011;8994;48.934;9.526;2022-07-04T15:33:16;1.47;;;1.37;;
17743;SDS011;8994;48.934;9.526;2022-07-04T15:35:43;5.17;;;1.30;;
17743;SDS011;8994;48.934;9.526;2022-07-04T15:38:09;1.07;;;1.07;;